createdAt,value
2017-09-25T00:00:02.030Z,23.4
2017-09-25T00:01:03.154Z,23.4
2017-09-25T00:02:04.591Z,23.4
2017-09-25T00:03:06.398Z,23.4
2017-09-25T00:04:07.501Z,23.4
2017-09-25T00:05:09.631Z,23.4
2017-09-25T00:06:11.069Z,23.4
2017-09-25T00:07:12.864Z,23.4
2017-09-25T00:08:14.652Z,23.5
2017-09-25T00:09:16.445Z,23.4
2017-09-25T00:10:18.239Z,23.5
2017-09-25T00:11:20.033Z,23.5
2017-09-25T00:12:21.160Z,23.4
2017-09-25T00:13:22.965Z,23.5
2017-09-25T00:14:24.757Z,23.5
2017-09-25T00:15:26.191Z,23.4
2017-09-25T00:16:27.631Z,23.5
2017-09-25T00:17:29.070Z,23.4
2017-09-25T00:18:30.176Z,23.5
2017-09-25T00:19:31.967Z,23.5
2017-09-25T00:20:34.122Z,23.4
2017-09-25T00:21:36.249Z,23.4
2017-09-25T00:22:37.350Z,23.4
2017-09-25T00:23:38.810Z,23.4
2017-09-25T00:24:40.579Z,23.5
2017-09-25T00:25:42.371Z,23.3
2017-09-25T00:26:44.163Z,23.4
2017-09-25T00:27:45.934Z,23.4
2017-09-25T00:28:47.739Z,23.5
2017-09-25T00:29:49.851Z,23.5
2017-09-25T00:30:51.979Z,23.5
2017-09-25T00:31:53.773Z,23.4
2017-09-25T00:32:55.900Z,23.4
2017-09-25T00:33:57.691Z,23.4
2017-09-25T00:34:59.489Z,23.4
2017-09-25T00:36:01.276Z,23.4
2017-09-25T00:37:03.046Z,23.4
2017-09-25T00:38:05.173Z,23.4
2017-09-25T00:39:06.630Z,23.4
2017-09-25T00:40:08.423Z,23.4
2017-09-25T00:41:09.876Z,23.4
2017-09-25T00:42:12.002Z,23.4
2017-09-25T00:43:13.462Z,23.4
2017-09-25T00:44:15.256Z,23.4
2017-09-25T00:45:16.710Z,23.3
2017-09-25T00:46:18.502Z,23.3
2017-09-25T00:47:20.296Z,23.3
2017-09-25T00:48:21.770Z,23.4
2017-09-25T00:49:23.882Z,23.4
2017-09-25T00:50:26.011Z,23.4
2017-09-25T00:51:28.148Z,23.3
2017-09-25T00:52:29.584Z,23.5
2017-09-25T00:53:31.710Z,23.4
2017-09-25T00:54:33.169Z,23.4
2017-09-25T00:55:34.940Z,23.5
2017-09-25T00:56:36.377Z,23.4
2017-09-25T00:57:38.171Z,23.4
2017-09-25T00:58:39.629Z,23.4
2017-09-25T00:59:41.756Z,23.4
2017-09-25T01:00:43.193Z,23.4
2017-09-25T01:01:44.301Z,23.3
2017-09-25T01:02:45.757Z,23.4
2017-09-25T01:03:47.882Z,23.4
2017-09-25T01:04:50.020Z,23.4
2017-09-25T01:05:51.476Z,23.3
2017-09-25T01:06:52.912Z,23.4
2017-09-25T01:07:55.056Z,23.3
2017-09-25T01:08:56.847Z,23.3
2017-09-25T01:09:57.974Z,23.4
2017-09-25T01:10:59.075Z,23.3
2017-09-25T01:12:00.517Z,23.4
2017-09-25T01:13:01.637Z,23.4
2017-09-25T01:14:03.762Z,23.4
2017-09-25T01:15:05.555Z,23.4
2017-09-25T01:16:07.679Z,23.3
2017-09-25T01:17:09.453Z,23.4
2017-09-25T01:18:11.626Z,23.4
2017-09-25T01:19:13.405Z,23.4
2017-09-25T01:20:15.199Z,23.3
2017-09-25T01:21:16.997Z,23.4
2017-09-25T01:22:18.450Z,23.4
2017-09-25T01:23:19.909Z,23.4
2017-09-25T01:24:22.057Z,23.4
2017-09-25T01:25:23.850Z,23.4
2017-09-25T01:26:25.644Z,23.4
2017-09-25T01:27:27.418Z,23.3
2017-09-25T01:28:29.209Z,23.3
2017-09-25T01:29:31.337Z,23.3
2017-09-25T01:30:33.462Z,23.4
2017-09-25T01:31:34.900Z,23.4
2017-09-25T01:32:36.671Z,23.4
2017-09-25T01:33:38.464Z,23.3
2017-09-25T01:34:40.592Z,23.4
2017-09-25T01:35:42.363Z,23.3
2017-09-25T01:36:44.155Z,23.4
2017-09-25T01:37:45.277Z,23.4
2017-09-25T01:38:46.048Z,23.4
2017-09-25T01:39:47.521Z,23.4
2017-09-25T01:40:49.284Z,23.4
2017-09-25T01:41:50.720Z,23.4
2017-09-25T01:42:52.189Z,23.3
2017-09-25T01:43:53.953Z,23.4
2017-09-25T01:44:56.084Z,23.4
2017-09-25T01:45:57.542Z,23.4
2017-09-25T01:46:59.337Z,23.5
2017-09-25T01:48:00.773Z,23.4
2017-09-25T01:49:02.543Z,23.4
2017-09-25T01:50:04.348Z,23.4
2017-09-25T01:51:06.472Z,23.4
2017-09-25T01:52:08.247Z,23.3
2017-09-25T01:53:10.041Z,23.3
2017-09-25T01:54:11.813Z,23.4
2017-09-25T01:55:13.947Z,23.3
2017-09-25T01:56:15.740Z,23.4
2017-09-25T01:57:17.175Z,23.3
2017-09-25T01:58:19.304Z,23.4
2017-09-25T01:59:20.743Z,23.3
2017-09-25T02:00:22.537Z,23.4
2017-09-25T02:01:23.996Z,23.4
2017-09-25T02:02:25.456Z,23.3
2017-09-25T02:03:26.578Z,23.3
2017-09-25T02:04:28.370Z,23.4
2017-09-25T02:05:30.498Z,23.3
2017-09-25T02:06:32.626Z,23.4
2017-09-25T02:07:34.072Z,23.4
2017-09-25T02:08:35.861Z,23.4
2017-09-25T02:09:37.320Z,23.4
2017-09-25T02:10:39.449Z,23.3
2017-09-25T02:11:41.243Z,23.2
2017-09-25T02:12:43.368Z,23.3
2017-09-25T02:13:45.137Z,23.4
2017-09-25T02:14:46.932Z,23.3
2017-09-25T02:15:48.723Z,23.4
2017-09-25T02:16:50.860Z,23.3
2017-09-25T02:17:52.664Z,23.3
2017-09-25T02:18:54.455Z,23.3
2017-09-25T02:19:56.251Z,23.4
2017-09-25T02:20:57.713Z,23.3
2017-09-25T02:21:59.173Z,23.3
2017-09-25T02:23:00.611Z,23.3
2017-09-25T02:24:01.737Z,23.2
2017-09-25T02:25:02.838Z,23.3
2017-09-25T02:26:04.631Z,23.3
2017-09-25T02:27:06.124Z,23.4
2017-09-25T02:28:07.916Z,23.3
2017-09-25T02:29:10.042Z,23.3
2017-09-25T02:30:11.835Z,23.3
2017-09-25T02:31:13.625Z,23.4
2017-09-25T02:32:15.419Z,23.3
2017-09-25T02:33:17.546Z,23.3
2017-09-25T02:34:18.660Z,23.3
2017-09-25T02:35:19.775Z,23.3
2017-09-25T02:36:21.213Z,23.3
2017-09-25T02:37:23.015Z,23.3
2017-09-25T02:38:24.796Z,23.3
2017-09-25T02:39:26.590Z,23.2
2017-09-25T02:40:28.028Z,23.3
2017-09-25T02:41:30.157Z,23.3
2017-09-25T02:42:32.282Z,23.3
2017-09-25T02:43:33.737Z,23.3
2017-09-25T02:44:35.527Z,23.2
2017-09-25T02:45:36.987Z,23.3
2017-09-25T02:46:38.780Z,23.4
2017-09-25T02:47:40.959Z,23.3
2017-09-25T02:48:42.412Z,23.3
2017-09-25T02:49:44.538Z,23.3
2017-09-25T02:50:46.333Z,23.3
2017-09-25T02:51:48.126Z,23.2
2017-09-25T02:52:49.572Z,23.4
2017-09-25T02:53:51.358Z,23.3
2017-09-25T02:54:52.486Z,23.2
2017-09-25T02:55:54.613Z,23.3
2017-09-25T02:56:56.050Z,23.3
2017-09-25T02:57:57.508Z,23.3
2017-09-25T02:58:58.944Z,23.3
2017-09-25T03:00:00.715Z,23.3
2017-09-25T03:01:02.842Z,23.3
2017-09-25T03:02:04.278Z,23.3
2017-09-25T03:03:06.085Z,23.3
2017-09-25T03:04:07.879Z,23.3
2017-09-25T03:05:09.671Z,23.4
2017-09-25T03:06:11.800Z,23.2
2017-09-25T03:07:13.257Z,23.3
2017-09-25T03:08:15.381Z,23.3
2017-09-25T03:09:17.508Z,23.3
2017-09-25T03:10:19.635Z,23.3
2017-09-25T03:11:21.762Z,23.4
2017-09-25T03:12:23.199Z,23.3
2017-09-25T03:13:24.994Z,23.3
2017-09-25T03:14:26.451Z,23.3
2017-09-25T03:15:28.242Z,23.3
2017-09-25T03:16:30.016Z,23.2
2017-09-25T03:17:31.810Z,23.3
2017-09-25T03:18:33.642Z,23.2
2017-09-25T03:19:35.063Z,23.2
2017-09-25T03:20:37.210Z,23.3
2017-09-25T03:21:39.002Z,23.3
2017-09-25T03:22:40.460Z,23.4
2017-09-25T03:23:41.581Z,23.3
2017-09-25T03:24:43.373Z,23.3
2017-09-25T03:25:45.173Z,23.4
2017-09-25T03:26:46.947Z,23.4
2017-09-25T03:27:48.745Z,23.4
2017-09-25T03:28:50.170Z,23.3
2017-09-25T03:29:52.298Z,23.3
2017-09-25T03:30:53.756Z,23.4
2017-09-25T03:31:54.862Z,23.4
2017-09-25T03:32:56.299Z,23.4
2017-09-25T03:33:57.757Z,23.3
2017-09-25T03:34:59.214Z,23.4
2017-09-25T03:36:01.007Z,23.4
2017-09-25T03:37:02.819Z,23.4
2017-09-25T03:38:04.590Z,23.5
2017-09-25T03:39:06.025Z,23.5
2017-09-25T03:40:07.836Z,23.5
2017-09-25T03:41:09.958Z,23.4
2017-09-25T03:42:11.731Z,23.4
2017-09-25T03:43:13.190Z,23.4
2017-09-25T03:44:15.321Z,23.5
2017-09-25T03:45:17.114Z,23.5
2017-09-25T03:46:18.906Z,23.4
2017-09-25T03:47:20.699Z,23.4
2017-09-25T03:48:22.492Z,23.5
2017-09-25T03:49:24.261Z,23.5
2017-09-25T03:50:26.387Z,23.5
2017-09-25T03:51:27.490Z,23.6
2017-09-25T03:52:29.301Z,23.6
2017-09-25T03:53:30.421Z,23.4
2017-09-25T03:54:31.882Z,23.6
2017-09-25T03:55:33.669Z,23.6
2017-09-25T03:56:35.462Z,23.5
2017-09-25T03:57:36.920Z,23.5
2017-09-25T03:58:38.715Z,23.5
2017-09-25T03:59:40.505Z,23.5
2017-09-25T04:00:42.299Z,23.6
2017-09-25T04:01:44.429Z,23.5
2017-09-25T04:02:46.220Z,23.4
2017-09-25T04:03:48.348Z,23.5
2017-09-25T04:04:49.785Z,23.5
2017-09-25T04:05:51.221Z,23.5
2017-09-25T04:06:53.013Z,23.5
2017-09-25T04:07:55.147Z,23.5
2017-09-25T04:08:56.941Z,23.5
2017-09-25T04:09:59.062Z,23.5
2017-09-25T04:11:00.514Z,23.6
2017-09-25T04:12:01.972Z,23.5
2017-09-25T04:13:03.745Z,23.5
2017-09-25T04:14:05.870Z,23.6
2017-09-25T04:15:07.306Z,23.5
2017-09-25T04:16:09.097Z,23.5
2017-09-25T04:17:11.238Z,23.5
2017-09-25T04:18:12.360Z,23.5
2017-09-25T04:19:13.818Z,23.5
2017-09-25T04:20:15.959Z,23.5
2017-09-25T04:21:17.737Z,23.6
2017-09-25T04:22:19.509Z,23.6
2017-09-25T04:23:21.304Z,23.6
2017-09-25T04:24:22.425Z,23.6
2017-09-25T04:25:23.861Z,23.6
2017-09-25T04:26:24.962Z,23.5
2017-09-25T04:27:26.399Z,23.6
2017-09-25T04:28:28.169Z,23.5
2017-09-25T04:29:29.618Z,23.6
2017-09-25T04:30:31.743Z,23.6
2017-09-25T04:31:33.187Z,23.5
2017-09-25T04:32:34.949Z,23.5
2017-09-25T04:33:36.387Z,23.6
2017-09-25T04:34:37.827Z,23.6
2017-09-25T04:35:39.265Z,23.6
2017-09-25T04:36:40.032Z,23.6
2017-09-25T04:37:41.803Z,23.6
2017-09-25T04:38:43.239Z,23.6
2017-09-25T04:39:45.367Z,23.5
2017-09-25T04:40:46.804Z,23.6
2017-09-25T04:41:48.595Z,23.6
2017-09-25T04:42:50.386Z,23.6
2017-09-25T04:43:52.517Z,23.6
2017-09-25T04:44:54.313Z,23.6
2017-09-25T04:45:56.438Z,23.6
2017-09-25T04:46:58.229Z,23.6
2017-09-25T04:48:00.000Z,23.6
2017-09-25T04:49:01.460Z,23.6
2017-09-25T04:50:03.234Z,23.6
2017-09-25T04:51:04.669Z,23.6
2017-09-25T04:52:06.464Z,23.7
2017-09-25T04:53:08.257Z,23.6
2017-09-25T04:54:09.696Z,23.6
2017-09-25T04:55:11.823Z,23.6
2017-09-25T04:56:13.615Z,23.6
2017-09-25T04:57:15.072Z,23.6
2017-09-25T04:58:17.201Z,23.6
2017-09-25T04:59:18.988Z,23.6
2017-09-25T05:00:20.446Z,23.6
2017-09-25T05:01:22.572Z,23.6
2017-09-25T05:02:24.699Z,23.6
2017-09-25T05:03:26.826Z,23.6
2017-09-25T05:04:28.969Z,23.6
2017-09-25T05:05:30.411Z,23.6
2017-09-25T05:06:31.849Z,23.6
2017-09-25T05:07:33.642Z,23.6
2017-09-25T05:08:35.772Z,23.6
2017-09-25T05:09:37.229Z,23.6
2017-09-25T05:10:39.020Z,23.6
2017-09-25T05:11:40.123Z,23.6
2017-09-25T05:12:41.588Z,23.6
2017-09-25T05:13:43.360Z,23.7
2017-09-25T05:14:45.490Z,23.6
2017-09-25T05:15:46.956Z,23.6
2017-09-25T05:16:48.750Z,23.6
2017-09-25T05:17:50.877Z,23.6
2017-09-25T05:18:52.670Z,23.6
2017-09-25T05:19:54.797Z,23.6
2017-09-25T05:20:56.927Z,23.6
2017-09-25T05:21:59.053Z,23.6
2017-09-25T05:23:01.182Z,23.6
2017-09-25T05:24:03.309Z,23.6
2017-09-25T05:25:05.438Z,23.6
2017-09-25T05:26:07.229Z,23.6
2017-09-25T05:27:09.020Z,23.6
2017-09-25T05:28:10.822Z,23.6
2017-09-25T05:29:12.616Z,23.6
2017-09-25T05:30:14.385Z,23.6
2017-09-25T05:31:16.512Z,23.6
2017-09-25T05:32:17.952Z,23.6
2017-09-25T05:33:19.745Z,23.6
2017-09-25T05:34:20.848Z,23.6
2017-09-25T05:35:21.973Z,23.6
2017-09-25T05:36:23.783Z,23.6
2017-09-25T05:37:25.550Z,23.6
2017-09-25T05:38:27.369Z,23.6
2017-09-25T05:39:29.160Z,23.6
2017-09-25T05:40:31.288Z,23.6
2017-09-25T05:41:33.415Z,23.6
2017-09-25T05:42:35.612Z,23.6
2017-09-25T05:43:37.050Z,23.6
2017-09-25T05:44:38.839Z,23.6
2017-09-25T05:45:40.635Z,23.6
2017-09-25T05:46:41.757Z,23.6
2017-09-25T05:47:43.551Z,23.6
2017-09-25T05:48:44.989Z,23.6
2017-09-25T05:49:47.168Z,23.6
2017-09-25T05:50:49.304Z,23.6
2017-09-25T05:51:51.096Z,23.6
2017-09-25T05:52:52.902Z,23.6
2017-09-25T05:53:54.364Z,23.6
2017-09-25T05:54:55.468Z,23.6
2017-09-25T05:55:56.905Z,23.6
2017-09-25T05:56:58.746Z,23.6
2017-09-25T05:58:00.870Z,23.6
2017-09-25T05:59:02.649Z,23.6
2017-09-25T06:00:04.084Z,23.6
2017-09-25T06:01:05.875Z,23.6
2017-09-25T06:02:07.335Z,23.5
2017-09-25T06:03:09.126Z,23.6
2017-09-25T06:04:10.898Z,23.6
2017-09-25T06:05:12.362Z,23.6
2017-09-25T06:06:14.155Z,23.6
2017-09-25T06:07:16.285Z,23.6
2017-09-25T06:08:18.076Z,23.6
2017-09-25T06:09:19.853Z,23.6
2017-09-25T06:10:20.966Z,23.6
2017-09-25T06:11:22.761Z,23.6
2017-09-25T06:12:24.893Z,23.6
2017-09-25T06:13:26.332Z,23.6
2017-09-25T06:14:28.159Z,23.5
2017-09-25T06:15:29.959Z,23.6
2017-09-25T06:16:31.750Z,23.5
2017-09-25T06:17:33.200Z,23.6
2017-09-25T06:18:34.691Z,23.6
2017-09-25T06:19:35.791Z,23.6
2017-09-25T06:20:37.920Z,23.6
2017-09-25T06:21:40.051Z,23.6
2017-09-25T06:22:41.822Z,23.6
2017-09-25T06:23:43.951Z,23.6
2017-09-25T06:24:45.746Z,23.6
2017-09-25T06:25:47.874Z,23.6
2017-09-25T06:26:49.352Z,23.5
2017-09-25T06:27:50.609Z,23.6
2017-09-25T06:28:52.402Z,23.6
2017-09-25T06:29:54.173Z,23.6
2017-09-25T06:30:55.632Z,23.5
2017-09-25T06:31:56.736Z,23.6
2017-09-25T06:32:58.278Z,23.5
2017-09-25T06:33:59.381Z,23.6
2017-09-25T06:35:00.821Z,23.6
2017-09-25T06:36:02.947Z,23.7
2017-09-25T06:37:04.408Z,23.6
2017-09-25T06:38:05.509Z,23.6
2017-09-25T06:39:06.971Z,23.6
2017-09-25T06:40:07.741Z,23.6
2017-09-25T06:41:09.181Z,23.6
2017-09-25T06:42:11.315Z,23.6
2017-09-25T06:43:12.785Z,23.6
2017-09-25T06:44:14.933Z,23.6
2017-09-25T06:45:16.733Z,23.6
2017-09-25T06:46:18.189Z,23.6
2017-09-25T06:47:19.958Z,23.6
2017-09-25T06:48:22.110Z,23.6
2017-09-25T06:49:23.900Z,23.6
2017-09-25T06:50:25.362Z,23.6
2017-09-25T06:51:27.492Z,23.6
2017-09-25T06:52:29.284Z,23.6
2017-09-25T06:53:31.409Z,23.6
2017-09-25T06:54:32.508Z,23.6
2017-09-25T06:55:34.302Z,23.6
2017-09-25T06:56:36.094Z,23.6
2017-09-25T06:57:37.865Z,23.6
2017-09-25T06:58:39.995Z,23.6
2017-09-25T06:59:42.127Z,23.6
2017-09-25T07:00:44.257Z,23.6
2017-09-25T07:01:45.694Z,23.6
2017-09-25T07:02:47.132Z,23.6
2017-09-25T07:03:49.263Z,23.7
2017-09-25T07:04:51.392Z,23.6
2017-09-25T07:05:53.521Z,23.6
2017-09-25T07:06:55.352Z,23.6
2017-09-25T07:07:57.143Z,23.6
2017-09-25T07:08:59.290Z,23.6
2017-09-25T07:10:00.724Z,23.6
2017-09-25T07:11:02.551Z,23.6
2017-09-25T07:12:04.690Z,23.6
2017-09-25T07:13:05.799Z,23.7
2017-09-25T07:14:07.583Z,23.7
2017-09-25T07:15:09.381Z,23.6
2017-09-25T07:16:11.184Z,23.6
2017-09-25T07:17:13.315Z,23.7
2017-09-25T07:18:15.110Z,23.6
2017-09-25T07:19:17.022Z,23.6
2017-09-25T07:20:18.137Z,23.7
2017-09-25T07:21:19.936Z,23.7
2017-09-25T07:22:21.726Z,23.7
2017-09-25T07:23:22.856Z,23.7
2017-09-25T07:24:24.647Z,23.7
2017-09-25T07:25:26.422Z,23.7
2017-09-25T07:26:27.882Z,23.7
2017-09-25T07:27:29.325Z,23.7
2017-09-25T07:28:30.787Z,23.6
2017-09-25T07:29:32.559Z,23.7
2017-09-25T07:30:34.351Z,23.6
2017-09-25T07:31:36.478Z,23.7
2017-09-25T07:32:38.250Z,23.7
2017-09-25T07:33:40.377Z,23.7
2017-09-25T07:34:41.834Z,23.7
2017-09-25T07:35:43.966Z,23.7
2017-09-25T07:36:45.408Z,23.7
2017-09-25T07:37:46.851Z,23.7
2017-09-25T07:38:48.308Z,23.6
2017-09-25T07:39:50.100Z,23.7
2017-09-25T07:40:51.569Z,23.7
2017-09-25T07:41:53.692Z,23.7
2017-09-25T07:42:55.818Z,23.7
2017-09-25T07:43:57.610Z,23.7
2017-09-25T07:44:59.405Z,23.6
2017-09-25T07:46:01.179Z,23.7
2017-09-25T07:47:02.952Z,23.7
2017-09-25T07:48:04.052Z,23.6
2017-09-25T07:49:05.493Z,23.7
2017-09-25T07:50:07.286Z,23.7
2017-09-25T07:51:08.724Z,23.7
2017-09-25T07:52:10.498Z,23.7
2017-09-25T07:53:12.301Z,23.7
2017-09-25T07:54:14.074Z,23.7
2017-09-25T07:55:16.203Z,23.7
2017-09-25T07:56:17.431Z,23.8
2017-09-25T07:57:19.564Z,23.8
2017-09-25T07:58:21.356Z,23.7
2017-09-25T07:59:22.793Z,23.7
2017-09-25T08:00:24.925Z,23.7
2017-09-25T08:01:26.701Z,23.8
2017-09-25T08:02:28.496Z,23.7
2017-09-25T08:03:29.268Z,23.8
2017-09-25T08:04:30.372Z,23.8
2017-09-25T08:05:31.830Z,23.8
2017-09-25T08:06:33.959Z,23.8
2017-09-25T08:07:35.065Z,23.8
2017-09-25T08:08:37.255Z,23.8
2017-09-25T08:09:39.049Z,23.8
2017-09-25T08:10:40.840Z,23.8
2017-09-25T08:11:42.635Z,23.8
2017-09-25T08:12:44.764Z,23.8
2017-09-25T08:13:46.204Z,23.8
2017-09-25T08:14:47.996Z,23.8
2017-09-25T08:15:49.433Z,23.9
2017-09-25T08:16:51.568Z,23.9
2017-09-25T08:17:53.007Z,23.9
2017-09-25T08:18:54.802Z,23.9
2017-09-25T08:19:56.931Z,23.9
2017-09-25T08:20:58.388Z,24
2017-09-25T08:22:00.159Z,23.9
2017-09-25T08:23:01.956Z,23.9
2017-09-25T08:24:03.772Z,24
2017-09-25T08:25:05.227Z,24
2017-09-25T08:26:06.772Z,24
2017-09-25T08:27:09.246Z,24
2017-09-25T08:28:10.687Z,24
2017-09-25T08:29:12.131Z,24
2017-09-25T08:30:13.942Z,24.1
2017-09-25T08:31:15.735Z,24
2017-09-25T08:32:17.197Z,24.1
2017-09-25T08:33:18.993Z,24.1
2017-09-25T08:34:20.786Z,24.1
2017-09-25T08:35:22.584Z,24.1
2017-09-25T08:36:24.708Z,24.1
2017-09-25T08:37:26.499Z,24
2017-09-25T08:38:28.295Z,24.1
2017-09-25T08:39:29.757Z,24
2017-09-25T08:40:31.530Z,24.1
2017-09-25T08:41:33.661Z,24.1
2017-09-25T08:42:35.436Z,24.1
2017-09-25T08:43:37.565Z,24.1
2017-09-25T08:44:39.898Z,24.1
2017-09-25T08:45:41.013Z,24.1
2017-09-25T08:46:42.506Z,24.1
2017-09-25T08:47:44.288Z,24.1
2017-09-25T08:48:45.731Z,24.1
2017-09-25T08:49:46.871Z,24.1
2017-09-25T08:50:48.648Z,24.1
2017-09-25T08:51:50.441Z,24.1
2017-09-25T08:52:52.217Z,24.1
2017-09-25T08:53:53.320Z,24.2
2017-09-25T08:54:55.101Z,24
2017-09-25T08:55:57.241Z,24.2
2017-09-25T08:56:58.729Z,24.1
2017-09-25T08:58:00.528Z,24.1
2017-09-25T08:59:02.656Z,24.1
2017-09-25T09:00:04.786Z,24.1
2017-09-25T09:01:06.245Z,24.2
2017-09-25T09:02:07.726Z,24.2
2017-09-25T09:03:09.267Z,24.1
2017-09-25T09:04:11.038Z,24.1
2017-09-25T09:05:12.475Z,24.1
2017-09-25T09:06:14.272Z,24.2
2017-09-25T09:07:16.070Z,24.3
2017-09-25T09:08:17.865Z,24.2
2017-09-25T09:09:19.996Z,24.2
2017-09-25T09:10:22.121Z,24.2
2017-09-25T09:11:23.592Z,24.2
2017-09-25T09:12:25.388Z,24.3
2017-09-25T09:13:27.188Z,24.3
2017-09-25T09:14:28.983Z,24.1
2017-09-25T09:15:31.120Z,24.2
2017-09-25T09:16:32.898Z,24.1
2017-09-25T09:17:34.715Z,24.2
2017-09-25T09:18:36.530Z,24.3
2017-09-25T09:19:37.990Z,24.3
2017-09-25T09:20:39.787Z,24.2
2017-09-25T09:21:41.562Z,24.3
2017-09-25T09:22:43.408Z,24.2
2017-09-25T09:23:44.873Z,24.2
2017-09-25T09:24:47.004Z,24.2
2017-09-25T09:25:48.797Z,24.3
2017-09-25T09:26:50.590Z,24.3
2017-09-25T09:27:52.061Z,24.2
2017-09-25T09:28:53.920Z,24.3
2017-09-25T09:29:55.716Z,24.3
2017-09-25T09:30:57.847Z,24.3
2017-09-25T09:31:59.286Z,24.3
2017-09-25T09:33:00.747Z,24.4
2017-09-25T09:34:01.858Z,24.3
2017-09-25T09:35:03.317Z,24.2
2017-09-25T09:36:05.447Z,24.4
2017-09-25T09:37:06.910Z,24.3
2017-09-25T09:38:09.143Z,24.3
2017-09-25T09:39:10.602Z,24.4
2017-09-25T09:40:12.402Z,24.3
2017-09-25T09:41:14.583Z,24.4
2017-09-25T09:42:16.378Z,24.4
2017-09-25T09:43:17.868Z,24.4
2017-09-25T09:44:19.663Z,24.4
2017-09-25T09:45:21.840Z,24.4
2017-09-25T09:46:23.277Z,24.4
2017-09-25T09:47:24.383Z,24.4
2017-09-25T09:48:25.876Z,24.4
2017-09-25T09:49:27.652Z,24.4
2017-09-25T09:50:29.779Z,24.4
2017-09-25T09:51:31.912Z,24.4
2017-09-25T09:52:34.043Z,24.4
2017-09-25T09:53:36.176Z,24.4
2017-09-25T09:54:38.346Z,24.4
2017-09-25T09:55:39.997Z,24.4
2017-09-25T09:56:42.162Z,24.5
2017-09-25T09:57:44.295Z,24.4
2017-09-25T09:58:46.098Z,24.5
2017-09-25T09:59:47.896Z,24.5
2017-09-25T10:00:49.344Z,24.4
2017-09-25T10:01:51.141Z,24.4
2017-09-25T10:02:53.334Z,24.3
2017-09-25T10:03:55.461Z,24.5
2017-09-25T10:04:56.897Z,24.5
2017-09-25T10:05:58.708Z,24.4
2017-09-25T10:07:00.858Z,24.5
2017-09-25T10:08:02.654Z,24.5
2017-09-25T10:09:04.784Z,24.5
2017-09-25T10:10:06.913Z,24.5
2017-09-25T10:11:08.425Z,24.4
2017-09-25T10:12:10.256Z,24.5
2017-09-25T10:13:11.406Z,24.5
2017-09-25T10:14:13.177Z,24.5
2017-09-25T10:15:14.975Z,24.5
2017-09-25T10:16:16.421Z,24.6
2017-09-25T10:17:17.886Z,24.6
2017-09-25T10:18:20.029Z,24.6
2017-09-25T10:19:22.154Z,24.5
2017-09-25T10:20:23.257Z,24.5
2017-09-25T10:21:25.024Z,24.6
2017-09-25T10:22:26.795Z,24.5
2017-09-25T10:23:28.980Z,24.6
2017-09-25T10:24:30.787Z,24.6
2017-09-25T10:25:32.805Z,24.6
2017-09-25T10:26:34.844Z,24.6
2017-09-25T10:27:37.071Z,24.6
2017-09-25T10:28:38.510Z,24.6
2017-09-25T10:29:40.380Z,24.6
2017-09-25T10:30:42.320Z,24.6
2017-09-25T10:31:44.233Z,24.6
2017-09-25T10:32:46.363Z,24.6
2017-09-25T10:33:48.133Z,24.6
2017-09-25T10:34:49.931Z,24.6
2017-09-25T10:35:51.392Z,24.6
2017-09-25T10:36:53.177Z,24.6
2017-09-25T10:37:54.618Z,24.6
2017-09-25T10:38:56.081Z,24.6
2017-09-25T10:39:57.181Z,24.6
2017-09-25T10:40:58.980Z,24.7
2017-09-25T10:42:00.776Z,24.7
2017-09-25T10:43:02.628Z,24.7
2017-09-25T10:44:04.422Z,24.6
2017-09-25T10:45:06.217Z,24.6
2017-09-25T10:46:07.331Z,24.6
2017-09-25T10:47:08.818Z,24.6
2017-09-25T10:48:10.613Z,24.8
2017-09-25T10:49:12.745Z,24.6
2017-09-25T10:50:14.876Z,24.7
2017-09-25T10:51:16.316Z,24.7
2017-09-25T10:52:18.109Z,24.7
2017-09-25T10:53:19.909Z,24.8
2017-09-25T10:54:21.709Z,24.7
2017-09-25T10:55:23.147Z,24.8
2017-09-25T10:56:24.919Z,24.8
2017-09-25T10:57:26.401Z,24.8
2017-09-25T10:58:28.193Z,24.7
2017-09-25T10:59:29.989Z,24.8
2017-09-25T11:00:32.121Z,24.7
2017-09-25T11:01:34.250Z,24.7
2017-09-25T11:02:36.042Z,24.8
2017-09-25T11:03:36.812Z,24.7
2017-09-25T11:04:38.940Z,24.7
2017-09-25T11:05:40.379Z,24.8
2017-09-25T11:06:42.149Z,24.7
2017-09-25T11:07:43.947Z,24.7
2017-09-25T11:08:45.411Z,24.8
2017-09-25T11:09:46.952Z,24.7
2017-09-25T11:10:48.747Z,24.7
2017-09-25T11:11:50.552Z,24.7
2017-09-25T11:12:51.657Z,24.7
2017-09-25T11:13:53.432Z,24.7
2017-09-25T11:14:55.206Z,24.8
2017-09-25T11:15:57.334Z,24.7
2017-09-25T11:16:59.129Z,24.8
2017-09-25T11:18:00.927Z,24.7
2017-09-25T11:19:02.724Z,24.8
2017-09-25T11:20:03.826Z,24.7
2017-09-25T11:21:05.953Z,24.8
2017-09-25T11:22:08.088Z,24.7
2017-09-25T11:23:09.883Z,24.8
2017-09-25T11:24:11.329Z,24.8
2017-09-25T11:25:13.461Z,24.8
2017-09-25T11:26:14.587Z,24.8
2017-09-25T11:27:16.022Z,24.8
2017-09-25T11:28:17.819Z,24.8
2017-09-25T11:29:19.617Z,24.7
2017-09-25T11:30:21.412Z,24.8
2017-09-25T11:31:22.872Z,24.8
2017-09-25T11:32:24.669Z,24.8
2017-09-25T11:33:26.126Z,24.9
2017-09-25T11:34:28.257Z,24.9
2017-09-25T11:35:30.033Z,24.8
2017-09-25T11:36:32.161Z,24.9
2017-09-25T11:37:34.293Z,24.8
2017-09-25T11:38:36.424Z,24.8
2017-09-25T11:39:37.554Z,24.9
2017-09-25T11:40:39.346Z,24.8
2017-09-25T11:41:41.475Z,24.8
2017-09-25T11:42:43.606Z,24.9
2017-09-25T11:43:45.407Z,24.8
2017-09-25T11:44:46.512Z,24.9
2017-09-25T11:45:47.971Z,24.9
2017-09-25T11:46:50.103Z,24.9
2017-09-25T11:47:52.231Z,24.9
2017-09-25T11:48:54.024Z,24.8
2017-09-25T11:49:55.822Z,24.9
2017-09-25T11:50:57.615Z,24.9
2017-09-25T11:51:59.411Z,24.9
2017-09-25T11:53:01.210Z,24.9
2017-09-25T11:54:03.008Z,25
2017-09-25T11:55:04.451Z,24.9
2017-09-25T11:56:06.247Z,24.9
2017-09-25T11:57:08.377Z,24.9
2017-09-25T11:58:09.816Z,24.9
2017-09-25T11:59:11.277Z,24.9
2017-09-25T12:00:12.735Z,24.9
2017-09-25T12:01:14.253Z,24.9
2017-09-25T12:02:15.717Z,24.9
2017-09-25T12:03:17.488Z,24.9
2017-09-25T12:04:18.937Z,24.9
2017-09-25T12:05:20.735Z,24.9
2017-09-25T12:06:22.532Z,24.9
2017-09-25T12:07:24.324Z,24.9
2017-09-25T12:08:26.451Z,24.9
2017-09-25T12:09:28.223Z,24.9
2017-09-25T12:10:29.687Z,24.9
2017-09-25T12:11:31.485Z,24.9
2017-09-25T12:12:32.922Z,24.9
2017-09-25T12:13:34.714Z,24.9
2017-09-25T12:14:36.175Z,24.9
2017-09-25T12:15:37.971Z,24.9
2017-09-25T12:16:40.102Z,25
2017-09-25T12:17:41.878Z,25.1
2017-09-25T12:18:43.675Z,25
2017-09-25T12:19:45.145Z,25
2017-09-25T12:20:47.276Z,25
2017-09-25T12:21:49.405Z,24.9
2017-09-25T12:22:50.847Z,25
2017-09-25T12:23:52.629Z,25
2017-09-25T12:24:54.757Z,25
2017-09-25T12:25:56.214Z,25
2017-09-25T12:26:57.338Z,25
2017-09-25T12:27:59.470Z,24.9
2017-09-25T12:29:01.267Z,25
2017-09-25T12:30:02.392Z,25
2017-09-25T12:31:03.494Z,25
2017-09-25T12:32:05.289Z,25
2017-09-25T12:33:07.425Z,25
2017-09-25T12:34:09.219Z,25
2017-09-25T12:35:11.017Z,25
2017-09-25T12:36:12.813Z,25.1
2017-09-25T12:37:14.607Z,25
2017-09-25T12:38:16.740Z,25.1
2017-09-25T12:39:18.869Z,25
2017-09-25T12:40:20.665Z,25.1
2017-09-25T12:41:22.437Z,25
2017-09-25T12:42:24.588Z,25
2017-09-25T12:43:26.049Z,25
2017-09-25T12:44:27.844Z,25
2017-09-25T12:45:29.975Z,25
2017-09-25T12:46:32.108Z,25.1
2017-09-25T12:47:34.237Z,25.1
2017-09-25T12:48:35.676Z,25
2017-09-25T12:49:37.822Z,25.1
2017-09-25T12:50:39.307Z,25.1
2017-09-25T12:51:41.101Z,25.1
2017-09-25T12:52:43.231Z,25.1
2017-09-25T12:53:45.031Z,25
2017-09-25T12:54:46.824Z,25
2017-09-25T12:55:48.627Z,25.1
2017-09-25T12:56:49.728Z,25
2017-09-25T12:57:51.856Z,25
2017-09-25T12:58:53.985Z,25
2017-09-25T12:59:55.425Z,25
2017-09-25T13:00:57.202Z,25
2017-09-25T13:01:58.661Z,25
2017-09-25T13:03:00.459Z,25
2017-09-25T13:04:02.252Z,25
2017-09-25T13:05:04.045Z,24.9
2017-09-25T13:06:05.149Z,25
2017-09-25T13:07:06.941Z,25
2017-09-25T13:08:08.716Z,25
2017-09-25T13:09:10.508Z,25
2017-09-25T13:10:12.639Z,25
2017-09-25T13:11:13.406Z,25.1
2017-09-25T13:12:15.535Z,25
2017-09-25T13:13:17.663Z,25
2017-09-25T13:14:19.795Z,25
2017-09-25T13:15:21.256Z,25
2017-09-25T13:16:23.059Z,25.1
2017-09-25T13:17:25.187Z,25.1
2017-09-25T13:18:26.980Z,25
2017-09-25T13:19:28.783Z,25
2017-09-25T13:20:30.579Z,25.1
2017-09-25T13:21:32.024Z,25
2017-09-25T13:22:34.153Z,24.9
2017-09-25T13:23:35.369Z,24.9
2017-09-25T13:24:37.160Z,25
2017-09-25T13:25:38.597Z,25
2017-09-25T13:26:40.389Z,25
2017-09-25T13:27:41.854Z,25
2017-09-25T13:28:43.649Z,24.9
2017-09-25T13:29:45.424Z,25
2017-09-25T13:30:47.225Z,25
2017-09-25T13:31:49.012Z,25
2017-09-25T13:32:50.812Z,25
2017-09-25T13:33:52.614Z,24.9
2017-09-25T13:34:54.746Z,25
2017-09-25T13:35:56.538Z,25
2017-09-25T13:36:57.978Z,25.1
2017-09-25T13:37:59.773Z,24.9
2017-09-25T13:39:01.545Z,25
2017-09-25T13:40:03.320Z,25
2017-09-25T13:41:04.774Z,25
2017-09-25T13:42:06.236Z,24.9
2017-09-25T13:43:07.697Z,25
2017-09-25T13:44:09.828Z,25
2017-09-25T13:45:11.289Z,25
2017-09-25T13:46:12.743Z,25